MMPR/PVR METAR and TAF weather

Enter ICAO airport designator
Station Type Date Time Source
MMPR METAR 2020/04/04 20:49 UTC NOAA

MMPR 042049Z 22013KT 15SM FEW250 27/19 A2981 RMK SLP094 57013 956 8/001


Station Type Date Time Source
MMPR Decoded METAR 2020/04/04 20:49 UTC NOAA

Puerto Vallarta / Lic, Mexico (MMPR) 20-41N 105-15W
Apr 04, 2020 - 04:49 PM EDT / 2020.04.04 2049 UTC
Wind: from the SW (220 degrees) at 15 MPH (13 KT):0
Visibility: 15 mile(s):0
Sky conditions: mostly clear
Temperature: 80 F (27 C)
Dew Point: 66 F (19 C)
Relative Humidity: 61%
Pressure (altimeter): 29.81 in. Hg (1009 hPa)
Pressure tendency: 0.04 inches (1.3 hPa) lower than three hours ago
ob: MMPR 042049Z 22013KT 15SM FEW250 27/19 A2981 RMK SLP094 57013 956 8/001
cycle: 21

Station Type Date Time Source
MMPR TAF 2020/04/04 18:48 UTC NOAA

TAF MMPR 041646Z 0418/0524 22010KT P6SM SKC TX28/0421Z TN18/0512Z
BECMG 0502/0503 02005KT
FM051200 02005KT P6SM SCT220
BECMG 0518/0519 21010KT BKN220

Example: see airport list